sensor_id;sensor_type;location;lat;lon;timestamp;pressure;altitude;pressure_sealevel;temperature;humidity
36242;BME280;22283;42.748;12.732;2023-03-09T00:02:16;97436.56;;;11.48;86.92
36242;BME280;22283;42.748;12.732;2023-03-09T00:07:17;97429.16;;;11.52;86.26
36242;BME280;22283;42.748;12.732;2023-03-09T00:12:17;97424.41;;;11.46;86.21
36242;BME280;22283;42.748;12.732;2023-03-09T00:17:18;97428.63;;;11.48;86.25
36242;BME280;22283;42.748;12.732;2023-03-09T00:22:19;97424.44;;;11.55;85.36
36242;BME280;22283;42.748;12.732;2023-03-09T00:27:20;97430.88;;;11.53;85.56
36242;BME280;22283;42.748;12.732;2023-03-09T00:32:20;97440.06;;;11.49;84.69
36242;BME280;22283;42.748;12.732;2023-03-09T00:37:21;97435.44;;;11.51;84.45
36242;BME280;22283;42.748;12.732;2023-03-09T00:42:22;97444.38;;;11.50;84.51
36242;BME280;22283;42.748;12.732;2023-03-09T00:47:22;97424.94;;;11.40;85.24
36242;BME280;22283;42.748;12.732;2023-03-09T00:52:23;97402.97;;;11.49;84.63
36242;BME280;22283;42.748;12.732;2023-03-09T00:57:24;97393.88;;;11.51;84.60
36242;BME280;22283;42.748;12.732;2023-03-09T01:02:25;97399.91;;;11.53;84.26
36242;BME280;22283;42.748;12.732;2023-03-09T01:07:26;97393.63;;;11.54;83.81
36242;BME280;22283;42.748;12.732;2023-03-09T01:12:29;97374.41;;;11.62;83.26
36242;BME280;22283;42.748;12.732;2023-03-09T01:17:30;97366.19;;;11.65;82.92
36242;BME280;22283;42.748;12.732;2023-03-09T01:22:30;97374.53;;;11.70;82.40
36242;BME280;22283;42.748;12.732;2023-03-09T01:27:31;97369.25;;;11.70;82.31
36242;BME280;22283;42.748;12.732;2023-03-09T01:32:32;97365.75;;;11.60;82.50
36242;BME280;22283;42.748;12.732;2023-03-09T01:37:36;97366.72;;;11.59;82.83
36242;BME280;22283;42.748;12.732;2023-03-09T01:42:37;97376.78;;;11.65;81.75
36242;BME280;22283;42.748;12.732;2023-03-09T01:47:38;97361.16;;;11.62;81.48
36242;BME280;22283;42.748;12.732;2023-03-09T01:52:39;97376.91;;;11.54;81.81
36242;BME280;22283;42.748;12.732;2023-03-09T01:58:15;97383.34;;;11.61;80.08
36242;BME280;22283;42.748;12.732;2023-03-09T02:03:17;97389.03;;;11.66;79.80
36242;BME280;22283;42.748;12.732;2023-03-09T02:08:21;97378.72;;;11.63;80.05
36242;BME280;22283;42.748;12.732;2023-03-09T02:13:29;97397.16;;;11.74;78.66
36242;BME280;22283;42.748;12.732;2023-03-09T02:18:30;97408.72;;;11.73;79.11
36242;BME280;22283;42.748;12.732;2023-03-09T02:23:51;97422.41;;;11.78;77.88
36242;BME280;22283;42.748;12.732;2023-03-09T02:28:55;97414.34;;;11.80;78.04
36242;BME280;22283;42.748;12.732;2023-03-09T02:33:57;97411.69;;;11.99;76.92
36242;BME280;22283;42.748;12.732;2023-03-09T02:39:04;97414.50;;;11.98;76.90
36242;BME280;22283;42.748;12.732;2023-03-09T02:44:06;97409.63;;;12.03;76.57
36242;BME280;22283;42.748;12.732;2023-03-09T02:49:08;97420.94;;;12.05;76.71
36242;BME280;22283;42.748;12.732;2023-03-09T02:54:09;97412.84;;;12.06;76.96
36242;BME280;22283;42.748;12.732;2023-03-09T02:59:10;97412.84;;;12.16;75.88
36242;BME280;22283;42.748;12.732;2023-03-09T03:04:11;97410.47;;;12.13;76.61
36242;BME280;22283;42.748;12.732;2023-03-09T03:09:13;97415.50;;;12.16;75.89
36242;BME280;22283;42.748;12.732;2023-03-09T03:14:13;97431.28;;;12.27;75.24
36242;BME280;22283;42.748;12.732;2023-03-09T03:19:14;97431.97;;;12.29;75.02
36242;BME280;22283;42.748;12.732;2023-03-09T03:24:16;97445.91;;;12.41;74.46
36242;BME280;22283;42.748;12.732;2023-03-09T03:29:17;97434.06;;;12.36;74.63
36242;BME280;22283;42.748;12.732;2023-03-09T03:34:18;97425.41;;;12.34;74.75
36242;BME280;22283;42.748;12.732;2023-03-09T03:39:21;97417.16;;;12.27;75.56
36242;BME280;22283;42.748;12.732;2023-03-09T03:44:24;97404.91;;;12.16;76.33
36242;BME280;22283;42.748;12.732;2023-03-09T03:49:24;97395.41;;;12.14;76.49
36242;BME280;22283;42.748;12.732;2023-03-09T03:54:27;97380.47;;;12.13;76.20
36242;BME280;22283;42.748;12.732;2023-03-09T03:59:27;97387.88;;;12.09;76.51
36242;BME280;22283;42.748;12.732;2023-03-09T04:04:28;97389.25;;;12.13;75.81
36242;BME280;22283;42.748;12.732;2023-03-09T04:09:35;97399.59;;;12.16;75.36
36242;BME280;22283;42.748;12.732;2023-03-09T04:14:35;97398.47;;;12.19;75.38
36242;BME280;22283;42.748;12.732;2023-03-09T04:19:38;97377.09;;;12.30;74.86
36242;BME280;22283;42.748;12.732;2023-03-09T04:24:40;97378.91;;;12.29;74.43
36242;BME280;22283;42.748;12.732;2023-03-09T04:29:41;97367.06;;;12.24;74.91
36242;BME280;22283;42.748;12.732;2023-03-09T04:34:43;97352.81;;;12.25;74.79
36242;BME280;22283;42.748;12.732;2023-03-09T04:39:45;97354.50;;;12.16;75.12
36242;BME280;22283;42.748;12.732;2023-03-09T04:44:46;97336.63;;;12.18;75.18
36242;BME280;22283;42.748;12.732;2023-03-09T04:49:47;97322.69;;;12.16;74.91
36242;BME280;22283;42.748;12.732;2023-03-09T04:54:48;97328.53;;;12.10;75.18
36242;BME280;22283;42.748;12.732;2023-03-09T04:59:50;97335.25;;;12.14;75.30
36242;BME280;22283;42.748;12.732;2023-03-09T05:04:50;97344.47;;;12.10;75.57
36242;BME280;22283;42.748;12.732;2023-03-09T05:09:52;97332.31;;;12.17;75.08
36242;BME280;22283;42.748;12.732;2023-03-09T05:14:53;97328.81;;;12.17;75.14
36242;BME280;22283;42.748;12.732;2023-03-09T05:19:55;97329.94;;;12.14;75.29
36242;BME280;22283;42.748;12.732;2023-03-09T05:24:59;97345.16;;;12.12;75.50
36242;BME280;22283;42.748;12.732;2023-03-09T05:30:00;97349.91;;;11.99;76.50
36242;BME280;22283;42.748;12.732;2023-03-09T05:35:01;97363.72;;;11.93;77.18
36242;BME280;22283;42.748;12.732;2023-03-09T05:40:02;97358.28;;;12.04;76.52
36242;BME280;22283;42.748;12.732;2023-03-09T05:45:09;97365.41;;;12.13;76.02
36242;BME280;22283;42.748;12.732;2023-03-09T05:50:10;97369.28;;;12.28;74.88
36242;BME280;22283;42.748;12.732;2023-03-09T05:55:12;97359.38;;;12.30;74.61
36242;BME280;22283;42.748;12.732;2023-03-09T06:00:16;97362.84;;;12.41;74.05
36242;BME280;22283;42.748;12.732;2023-03-09T06:05:27;97355.84;;;12.49;73.32
36242;BME280;22283;42.748;12.732;2023-03-09T06:10:28;97343.97;;;12.63;72.91
36242;BME280;22283;42.748;12.732;2023-03-09T06:15:28;97343.09;;;12.72;72.48
36242;BME280;22283;42.748;12.732;2023-03-09T06:20:30;97361.88;;;12.89;71.17
36242;BME280;22283;42.748;12.732;2023-03-09T06:25:33;97360.22;;;13.25;70.14
36242;BME280;22283;42.748;12.732;2023-03-09T06:30:38;97356.06;;;13.68;67.76
36242;BME280;22283;42.748;12.732;2023-03-09T06:35:39;97359.56;;;14.22;65.29
36242;BME280;22283;42.748;12.732;2023-03-09T06:40:43;97354.19;;;14.84;62.95
36242;BME280;22283;42.748;12.732;2023-03-09T06:45:46;97350.41;;;15.29;60.68
36242;BME280;22283;42.748;12.732;2023-03-09T06:50:47;97344.41;;;15.69;58.68
36242;BME280;22283;42.748;12.732;2023-03-09T06:55:49;97344.13;;;16.13;57.99
36242;BME280;22283;42.748;12.732;2023-03-09T07:00:49;97349.13;;;16.48;56.82
36242;BME280;22283;42.748;12.732;2023-03-09T07:05:51;97374.81;;;16.50;55.93
36242;BME280;22283;42.748;12.732;2023-03-09T07:10:52;97368.78;;;16.88;55.71
36242;BME280;22283;42.748;12.732;2023-03-09T07:15:53;97370.31;;;16.75;56.16
36242;BME280;22283;42.748;12.732;2023-03-09T07:20:53;97365.81;;;16.75;55.49
36242;BME280;22283;42.748;12.732;2023-03-09T07:25:54;97372.63;;;16.69;55.46
36242;BME280;22283;42.748;12.732;2023-03-09T07:30:58;97374.63;;;16.92;55.57
36242;BME280;22283;42.748;12.732;2023-03-09T07:36:02;97381.25;;;17.12;55.15
36242;BME280;22283;42.748;12.732;2023-03-09T07:41:03;97367.88;;;17.12;55.25
36242;BME280;22283;42.748;12.732;2023-03-09T07:46:07;97376.97;;;16.79;56.15
36242;BME280;22283;42.748;12.732;2023-03-09T07:51:08;97360.94;;;16.70;55.46
36242;BME280;22283;42.748;12.732;2023-03-09T07:56:09;97369.63;;;16.64;56.03
36242;BME280;22283;42.748;12.732;2023-03-09T08:01:15;97367.63;;;16.50;56.60
36242;BME280;22283;42.748;12.732;2023-03-09T08:06:17;97364.31;;;16.48;56.94
36242;BME280;22283;42.748;12.732;2023-03-09T08:11:19;97350.97;;;16.48;56.76
36242;BME280;22283;42.748;12.732;2023-03-09T08:16:19;97353.31;;;16.51;56.55
36242;BME280;22283;42.748;12.732;2023-03-09T08:21:21;97350.75;;;16.66;55.88
36242;BME280;22283;42.748;12.732;2023-03-09T08:26:21;97371.31;;;16.33;56.91
36242;BME280;22283;42.748;12.732;2023-03-09T08:31:22;97374.94;;;15.99;58.39
36242;BME280;22283;42.748;12.732;2023-03-09T08:36:24;97382.28;;;15.89;59.04
36242;BME280;22283;42.748;12.732;2023-03-09T08:41:25;97363.09;;;15.93;58.59
36242;BME280;22283;42.748;12.732;2023-03-09T08:46:25;97367.31;;;16.20;58.65
36242;BME280;22283;42.748;12.732;2023-03-09T08:51:26;97374.97;;;16.64;57.92
36242;BME280;22283;42.748;12.732;2023-03-09T08:56:28;97368.63;;;16.57;57.42
36242;BME280;22283;42.748;12.732;2023-03-09T09:01:29;97363.31;;;16.49;58.25
36242;BME280;22283;42.748;12.732;2023-03-09T09:06:30;97362.13;;;16.27;58.79
36242;BME280;22283;42.748;12.732;2023-03-09T09:11:31;97355.94;;;16.35;59.45
36242;BME280;22283;42.748;12.732;2023-03-09T09:16:33;97377.13;;;16.85;59.44
36242;BME280;22283;42.748;12.732;2023-03-09T09:21:33;97385.09;;;17.10;58.02
36242;BME280;22283;42.748;12.732;2023-03-09T09:26:34;97397.19;;;17.37;57.36
36242;BME280;22283;42.748;12.732;2023-03-09T09:31:35;97384.84;;;17.36;57.26
36242;BME280;22283;42.748;12.732;2023-03-09T09:36:39;97397.22;;;17.29;57.37
36242;BME280;22283;42.748;12.732;2023-03-09T09:41:44;97399.50;;;17.48;57.64
36242;BME280;22283;42.748;12.732;2023-03-09T09:46:47;97392.19;;;17.34;58.39
36242;BME280;22283;42.748;12.732;2023-03-09T09:57:17;97402.34;;;17.55;58.63
36242;BME280;22283;42.748;12.732;2023-03-09T10:08:16;97410.06;;;17.41;58.04
36242;BME280;22283;42.748;12.732;2023-03-09T10:13:38;97403.47;;;17.60;58.08
36242;BME280;22283;42.748;12.732;2023-03-09T10:18:44;97388.81;;;17.87;57.80
36242;BME280;22283;42.748;12.732;2023-03-09T10:23:47;97392.25;;;17.96;57.52
36242;BME280;22283;42.748;12.732;2023-03-09T10:28:49;97391.44;;;17.96;56.85
36242;BME280;22283;42.748;12.732;2023-03-09T10:33:59;97398.59;;;18.03;57.31
36242;BME280;22283;42.748;12.732;2023-03-09T10:39:12;97374.72;;;17.93;57.32
36242;BME280;22283;42.748;12.732;2023-03-09T10:44:15;97378.72;;;18.21;57.44
36242;BME280;22283;42.748;12.732;2023-03-09T10:49:19;97371.34;;;18.23;56.52
36242;BME280;22283;42.748;12.732;2023-03-09T10:54:26;97385.75;;;18.22;56.72
36242;BME280;22283;42.748;12.732;2023-03-09T10:59:29;97384.38;;;18.26;56.61
36242;BME280;22283;42.748;12.732;2023-03-09T11:04:33;97388.25;;;18.23;56.33
36242;BME280;22283;42.748;12.732;2023-03-09T11:14:47;97376.81;;;18.06;57.09
36242;BME280;22283;42.748;12.732;2023-03-09T11:19:49;97373.63;;;18.11;57.71
36242;BME280;22283;42.748;12.732;2023-03-09T11:24:50;97373.38;;;18.21;57.68
36242;BME280;22283;42.748;12.732;2023-03-09T11:35:22;97372.09;;;18.54;56.42
36242;BME280;22283;42.748;12.732;2023-03-09T11:40:26;97391.31;;;18.81;55.86
36242;BME280;22283;42.748;12.732;2023-03-09T11:45:31;97388.56;;;19.19;57.00
36242;BME280;22283;42.748;12.732;2023-03-09T11:50:39;97396.06;;;19.38;55.40
36242;BME280;22283;42.748;12.732;2023-03-09T11:55:45;97415.06;;;18.84;56.18
36242;BME280;22283;42.748;12.732;2023-03-09T12:00:49;97411.19;;;18.63;57.60
36242;BME280;22283;42.748;12.732;2023-03-09T12:06:00;97405.94;;;18.93;55.60
36242;BME280;22283;42.748;12.732;2023-03-09T12:16:27;97415.38;;;19.04;54.90
36242;BME280;22283;42.748;12.732;2023-03-09T12:21:35;97423.16;;;18.76;52.56
36242;BME280;22283;42.748;12.732;2023-03-09T12:26:37;97392.75;;;19.21;53.20
36242;BME280;22283;42.748;12.732;2023-03-09T12:31:38;97393.38;;;19.38;53.75
36242;BME280;22283;42.748;12.732;2023-03-09T12:36:40;97396.34;;;19.13;53.85
36242;BME280;22283;42.748;12.732;2023-03-09T12:42:44;97393.09;;;19.03;54.69
36242;BME280;22283;42.748;12.732;2023-03-09T12:48:17;97383.41;;;19.02;55.60
36242;BME280;22283;42.748;12.732;2023-03-09T12:53:22;97366.00;;;18.83;54.88
36242;BME280;22283;42.748;12.732;2023-03-09T13:03:29;97370.25;;;19.07;54.85
36242;BME280;22283;42.748;12.732;2023-03-09T13:08:41;97375.16;;;19.19;53.91
36242;BME280;22283;42.748;12.732;2023-03-09T13:13:41;97366.00;;;19.28;53.24
36242;BME280;22283;42.748;12.732;2023-03-09T13:18:45;97343.25;;;19.53;53.52
36242;BME280;22283;42.748;12.732;2023-03-09T13:23:46;97343.34;;;19.96;52.98
36242;BME280;22283;42.748;12.732;2023-03-09T13:28:47;97330.28;;;20.14;52.22
36242;BME280;22283;42.748;12.732;2023-03-09T13:33:50;97336.47;;;20.51;51.64
36242;BME280;22283;42.748;12.732;2023-03-09T13:38:54;97331.19;;;20.22;51.71
36242;BME280;22283;42.748;12.732;2023-03-09T13:43:57;97316.50;;;19.96;52.67
36242;BME280;22283;42.748;12.732;2023-03-09T13:49:02;97322.66;;;19.75;53.42
36242;BME280;22283;42.748;12.732;2023-03-09T13:59:20;97315.63;;;19.59;54.67
36242;BME280;22283;42.748;12.732;2023-03-09T14:04:24;97313.28;;;19.64;54.64
36242;BME280;22283;42.748;12.732;2023-03-09T14:14:29;97329.47;;;19.41;55.52
36242;BME280;22283;42.748;12.732;2023-03-09T14:19:33;97309.44;;;19.23;56.02
36242;BME280;22283;42.748;12.732;2023-03-09T14:24:34;97312.56;;;19.11;56.30
36242;BME280;22283;42.748;12.732;2023-03-09T14:29:35;97313.69;;;19.02;56.91
36242;BME280;22283;42.748;12.732;2023-03-09T14:34:36;97304.25;;;18.77;57.49
36242;BME280;22283;42.748;12.732;2023-03-09T14:39:37;97312.22;;;18.70;57.82
36242;BME280;22283;42.748;12.732;2023-03-09T14:50:13;97313.44;;;18.59;59.22
36242;BME280;22283;42.748;12.732;2023-03-09T14:55:19;97306.78;;;18.55;59.64
36242;BME280;22283;42.748;12.732;2023-03-09T15:00:22;97307.09;;;18.23;60.29
36242;BME280;22283;42.748;12.732;2023-03-09T15:05:24;97315.44;;;18.05;61.00
36242;BME280;22283;42.748;12.732;2023-03-09T15:10:26;97318.06;;;17.90;62.58
36242;BME280;22283;42.748;12.732;2023-03-09T15:15:27;97314.44;;;17.83;64.14
36242;BME280;22283;42.748;12.732;2023-03-09T15:20:27;97313.13;;;17.70;64.31
36242;BME280;22283;42.748;12.732;2023-03-09T15:25:28;97324.41;;;17.58;64.47
36242;BME280;22283;42.748;12.732;2023-03-09T15:30:29;97320.25;;;17.55;64.32
36242;BME280;22283;42.748;12.732;2023-03-09T15:35:30;97313.50;;;17.36;64.63
36242;BME280;22283;42.748;12.732;2023-03-09T15:40:31;97308.03;;;17.21;65.67
36242;BME280;22283;42.748;12.732;2023-03-09T15:45:31;97314.13;;;17.07;65.31
36242;BME280;22283;42.748;12.732;2023-03-09T15:50:32;97303.81;;;16.96;65.62
36242;BME280;22283;42.748;12.732;2023-03-09T15:55:35;97300.19;;;16.81;66.68
36242;BME280;22283;42.748;12.732;2023-03-09T16:00:36;97302.53;;;16.76;67.56
36242;BME280;22283;42.748;12.732;2023-03-09T16:05:36;97304.53;;;16.57;68.08
36242;BME280;22283;42.748;12.732;2023-03-09T16:10:37;97298.22;;;16.50;68.40
36242;BME280;22283;42.748;12.732;2023-03-09T16:15:39;97309.22;;;16.39;70.24
36242;BME280;22283;42.748;12.732;2023-03-09T16:20:40;97304.59;;;16.25;70.53
36242;BME280;22283;42.748;12.732;2023-03-09T16:25:41;97305.56;;;16.07;71.91
36242;BME280;22283;42.748;12.732;2023-03-09T16:30:41;97293.75;;;15.93;73.07
36242;BME280;22283;42.748;12.732;2023-03-09T16:35:42;97281.41;;;15.76;73.89
36242;BME280;22283;42.748;12.732;2023-03-09T16:40:44;97280.00;;;15.64;75.06
36242;BME280;22283;42.748;12.732;2023-03-09T16:45:53;97286.84;;;15.50;77.07
36242;BME280;22283;42.748;12.732;2023-03-09T16:50:56;97281.47;;;15.42;78.39
36242;BME280;22283;42.748;12.732;2023-03-09T16:56:05;97281.09;;;15.20;80.11
36242;BME280;22283;42.748;12.732;2023-03-09T17:01:17;97264.06;;;15.05;81.54
36242;BME280;22283;42.748;12.732;2023-03-09T17:06:19;97277.53;;;15.04;81.75
36242;BME280;22283;42.748;12.732;2023-03-09T17:11:20;97273.94;;;14.79;83.65
36242;BME280;22283;42.748;12.732;2023-03-09T17:16:22;97280.41;;;14.76;84.36
36242;BME280;22283;42.748;12.732;2023-03-09T17:21:23;97280.31;;;14.60;85.33
36242;BME280;22283;42.748;12.732;2023-03-09T17:26:23;97272.13;;;14.53;86.31
36242;BME280;22283;42.748;12.732;2023-03-09T17:31:24;97272.28;;;14.51;86.29
36242;BME280;22283;42.748;12.732;2023-03-09T17:36:25;97259.56;;;14.37;86.66
36242;BME280;22283;42.748;12.732;2023-03-09T17:41:26;97267.38;;;14.39;87.74
36242;BME280;22283;42.748;12.732;2023-03-09T17:46:26;97256.09;;;14.45;86.55
36242;BME280;22283;42.748;12.732;2023-03-09T17:51:27;97256.41;;;14.42;87.19
36242;BME280;22283;42.748;12.732;2023-03-09T17:56:28;97250.19;;;14.51;85.61
36242;BME280;22283;42.748;12.732;2023-03-09T18:01:29;97260.56;;;14.44;85.65
36242;BME280;22283;42.748;12.732;2023-03-09T18:06:30;97284.47;;;14.36;86.36
36242;BME280;22283;42.748;12.732;2023-03-09T18:11:32;97291.50;;;14.37;86.80
36242;BME280;22283;42.748;12.732;2023-03-09T18:16:33;97295.66;;;14.40;86.81
36242;BME280;22283;42.748;12.732;2023-03-09T18:21:33;97285.00;;;14.40;87.36
36242;BME280;22283;42.748;12.732;2023-03-09T18:26:37;97291.38;;;14.47;87.25
36242;BME280;22283;42.748;12.732;2023-03-09T18:31:38;97280.28;;;14.51;87.31
36242;BME280;22283;42.748;12.732;2023-03-09T18:36:38;97288.09;;;14.53;87.24
36242;BME280;22283;42.748;12.732;2023-03-09T18:41:39;97302.84;;;14.47;87.34
36242;BME280;22283;42.748;12.732;2023-03-09T18:46:39;97303.84;;;14.46;87.62
36242;BME280;22283;42.748;12.732;2023-03-09T18:51:40;97310.84;;;14.21;89.65
36242;BME280;22283;42.748;12.732;2023-03-09T18:56:40;97324.50;;;14.09;90.99
36242;BME280;22283;42.748;12.732;2023-03-09T19:01:41;97315.03;;;14.06;92.00
36242;BME280;22283;42.748;12.732;2023-03-09T19:06:41;97307.41;;;14.11;91.92
36242;BME280;22283;42.748;12.732;2023-03-09T19:11:42;97310.75;;;14.13;92.27
36242;BME280;22283;42.748;12.732;2023-03-09T19:16:43;97300.69;;;13.99;93.32
36242;BME280;22283;42.748;12.732;2023-03-09T19:21:44;97316.63;;;13.99;93.64
36242;BME280;22283;42.748;12.732;2023-03-09T19:26:44;97325.22;;;13.93;94.15
36242;BME280;22283;42.748;12.732;2023-03-09T19:31:45;97337.44;;;13.86;94.95
36242;BME280;22283;42.748;12.732;2023-03-09T19:36:46;97344.53;;;13.95;94.30
36242;BME280;22283;42.748;12.732;2023-03-09T19:41:47;97344.28;;;14.06;93.62
36242;BME280;22283;42.748;12.732;2023-03-09T19:46:48;97353.88;;;13.99;92.79
36242;BME280;22283;42.748;12.732;2023-03-09T19:51:50;97352.63;;;14.11;91.41
36242;BME280;22283;42.748;12.732;2023-03-09T19:56:53;97346.50;;;14.11;92.15
36242;BME280;22283;42.748;12.732;2023-03-09T20:01:54;97350.81;;;14.12;92.69
36242;BME280;22283;42.748;12.732;2023-03-09T20:06:57;97335.97;;;14.27;92.50
36242;BME280;22283;42.748;12.732;2023-03-09T20:12:04;97328.41;;;14.14;93.76
36242;BME280;22283;42.748;12.732;2023-03-09T20:17:05;97333.66;;;14.06;94.23
36242;BME280;22283;42.748;12.732;2023-03-09T20:22:06;97329.53;;;14.12;93.11
36242;BME280;22283;42.748;12.732;2023-03-09T20:27:08;97331.00;;;14.06;93.77
36242;BME280;22283;42.748;12.732;2023-03-09T20:32:12;97326.03;;;13.93;95.04
36242;BME280;22283;42.748;12.732;2023-03-09T20:37:13;97327.72;;;13.94;95.74
36242;BME280;22283;42.748;12.732;2023-03-09T20:42:17;97331.16;;;13.87;96.23
36242;BME280;22283;42.748;12.732;2023-03-09T20:47:18;97336.19;;;13.90;96.45
36242;BME280;22283;42.748;12.732;2023-03-09T20:52:19;97316.75;;;13.97;95.29
36242;BME280;22283;42.748;12.732;2023-03-09T20:57:19;97311.78;;;13.94;95.54
36242;BME280;22283;42.748;12.732;2023-03-09T21:02:20;97329.69;;;13.92;96.02
36242;BME280;22283;42.748;12.732;2023-03-09T21:07:23;97321.19;;;14.07;95.27
36242;BME280;22283;42.748;12.732;2023-03-09T21:12:24;97328.25;;;13.98;95.51
36242;BME280;22283;42.748;12.732;2023-03-09T21:17:25;97339.19;;;13.95;95.94
36242;BME280;22283;42.748;12.732;2023-03-09T21:22:26;97334.88;;;13.94;96.20
36242;BME280;22283;42.748;12.732;2023-03-09T21:27:27;97338.72;;;13.82;97.31
36242;BME280;22283;42.748;12.732;2023-03-09T21:32:28;97338.50;;;13.75;97.51
36242;BME280;22283;42.748;12.732;2023-03-09T21:37:29;97332.38;;;13.74;97.30
36242;BME280;22283;42.748;12.732;2023-03-09T21:42:29;97331.66;;;13.72;96.93
36242;BME280;22283;42.748;12.732;2023-03-09T21:47:30;97331.75;;;13.81;95.13
36242;BME280;22283;42.748;12.732;2023-03-09T21:52:31;97332.91;;;13.78;94.85
36242;BME280;22283;42.748;12.732;2023-03-09T21:57:31;97332.13;;;13.86;94.24
36242;BME280;22283;42.748;12.732;2023-03-09T22:02:32;97324.66;;;13.89;94.71
36242;BME280;22283;42.748;12.732;2023-03-09T22:07:34;97312.75;;;13.75;96.15
36242;BME280;22283;42.748;12.732;2023-03-09T22:12:37;97305.78;;;13.74;96.50
36242;BME280;22283;42.748;12.732;2023-03-09T22:17:40;97280.63;;;13.69;96.62
36242;BME280;22283;42.748;12.732;2023-03-09T22:22:42;97276.06;;;13.61;97.30
36242;BME280;22283;42.748;12.732;2023-03-09T22:27:42;97270.38;;;13.56;97.34
36242;BME280;22283;42.748;12.732;2023-03-09T22:32:44;97272.66;;;13.51;97.92
36242;BME280;22283;42.748;12.732;2023-03-09T22:37:45;97275.00;;;13.54;97.73
36242;BME280;22283;42.748;12.732;2023-03-09T22:42:47;97266.13;;;13.45;98.06
36242;BME280;22283;42.748;12.732;2023-03-09T22:47:47;97264.69;;;13.51;97.67
36242;BME280;22283;42.748;12.732;2023-03-09T22:52:48;97260.88;;;13.53;97.81
36242;BME280;22283;42.748;12.732;2023-03-09T22:57:50;97276.91;;;13.44;98.56
36242;BME280;22283;42.748;12.732;2023-03-09T23:02:50;97270.22;;;13.40;99.03
36242;BME280;22283;42.748;12.732;2023-03-09T23:07:51;97256.25;;;13.38;99.04
36242;BME280;22283;42.748;12.732;2023-03-09T23:12:51;97264.63;;;13.43;98.29
36242;BME280;22283;42.748;12.732;2023-03-09T23:17:52;97268.31;;;13.50;97.93
36242;BME280;22283;42.748;12.732;2023-03-09T23:22:55;97265.28;;;13.45;99.45
36242;BME280;22283;42.748;12.732;2023-03-09T23:27:56;97258.22;;;13.36;100.00
36242;BME280;22283;42.748;12.732;2023-03-09T23:32:58;97260.19;;;13.34;100.00
36242;BME280;22283;42.748;12.732;2023-03-09T23:37:58;97239.19;;;13.40;100.00
36242;BME280;22283;42.748;12.732;2023-03-09T23:42:59;97233.09;;;13.30;100.00
36242;BME280;22283;42.748;12.732;2023-03-09T23:48:00;97233.97;;;13.21;100.00
36242;BME280;22283;42.748;12.732;2023-03-09T23:53:01;97251.34;;;13.15;100.00
36242;BME280;22283;42.748;12.732;2023-03-09T23:58:25;97256.72;;;13.05;100.00
